Terminal Aerodrome Forecast
Issued by NWS Sioux Falls, SD

Home | Current Version | Previous Version | Graphics & Text | Print | Product List | Glossary On
Versions: 1 2 3 4 5 6 7 8 9 10 11 12
273
FTUS43 KFSD 221120
TAFHON
TAF
KHON 221120Z 2212/2312 03006KT P6SM TSRA OVC060CB
     FM221500 02005KT P6SM OVC060
     FM221700 33006KT P6SM BKN100
     FM221900 31013G18KT P6SM SCT200
     FM230300 31007KT P6SM FEW250=

USA.gov is the U.S. government's official web portal to all federal, state and local government web resources and services.